Time;durP1;ratioP1;P1;durP2;ratioP2;P2;SDS_P1;SDS_P2;PMS_P1;PMS_P2;Temp;Humidity;BMP_temperature;BMP_pressure;BME280_temperature;BME280_humidity;BME280_pressure;Samples;Min_cycle;Max_cycle;Signal;HPM_P1;HPM_P2
2024/02/15 00:00:16;;;;;;;39.45;28.27;;;;;;;;;;4967600;28;20054;-59
2024/02/15 00:02:44;;;;;;;44.45;28.42;;;;;;;;;;4953039;28;20042;-59
2024/02/15 00:05:11;;;;;;;44.83;28.17;;;;;;;;;;4952947;28;20027;-59
2024/02/15 00:07:37;;;;;;;41.90;27.88;;;;;;;;;;4954274;28;20038;-57
2024/02/15 00:10:04;;;;;;;51.95;30.27;;;;;;;;;;4955494;28;20385;-59
2024/02/15 00:12:30;;;;;;;49.17;31.17;;;;;;;;;;4954147;28;20074;-59
2024/02/15 00:14:58;;;;;;;45.60;29.35;;;;;;;;;;4961482;28;20031;-58
2024/02/15 00:17:25;;;;;;;47.97;29.23;;;;;;;;;;4954446;28;20467;-58
2024/02/15 00:19:51;;;;;;;46.90;31.95;;;;;;;;;;4954219;28;20129;-57
2024/02/15 00:22:18;;;;;;;47.92;30.58;;;;;;;;;;4960285;28;20031;-55
2024/02/15 00:24:45;;;;;;;;;;;;;;;;;;4973540;28;20058;-60
2024/02/15 00:27:11;;;;;;;52.72;30.95;;;;;;;;;;4970965;28;19910;-59
2024/02/15 00:29:37;;;;;;;54.20;31.38;;;;;;;;;;4965147;28;20026;-59
2024/02/15 00:32:05;;;;;;;50.80;29.45;;;;;;;;;;4957289;28;20038;-59
2024/02/15 00:34:33;;;;;;;49.35;29.80;;;;;;;;;;4954714;28;20046;-59
2024/02/15 00:36:59;;;;;;;37.92;26.40;;;;;;;;;;4967264;28;20034;-57
2024/02/15 00:39:25;;;;;;;46.33;26.80;;;;;;;;;;4953853;28;20034;-59
2024/02/15 00:41:52;;;;;;;41.05;25.95;;;;;;;;;;4965659;28;20019;-59
2024/02/15 00:44:18;;;;;;;46.77;28.83;;;;;;;;;;4971539;28;20098;-57
2024/02/15 00:46:44;;;;;;;41.35;25.48;;;;;;;;;;4959586;28;20090;-56
2024/02/15 00:49:10;;;;;;;41.17;26.63;;;;;;;;;;4969586;28;20019;-58
2024/02/15 00:51:37;;;;;;;41.60;26.77;;;;;;;;;;4953778;28;20031;-58
2024/02/15 00:54:03;;;;;;;37.17;26.48;;;;;;;;;;4984796;23;20039;-62
2024/02/15 00:56:30;;;;;;;44.63;26.25;;;;;;;;;;4971881;28;20023;-62
2024/02/15 00:58:57;;;;;;;;;;;;;;;;;;4972447;28;20426;-62
2024/02/15 01:01:23;;;;;;;42.13;27.58;;;;;;;;;;4971810;28;19964;-64
2024/02/15 01:03:49;;;;;;;45.00;29.00;;;;;;;;;;4972021;28;20027;-64
2024/02/15 01:06:15;;;;;;;44.92;28.45;;;;;;;;;;4971818;28;20112;-64
2024/02/15 01:08:42;;;;;;;43.92;28.88;;;;;;;;;;4972521;28;20533;-64
2024/02/15 01:11:09;;;;;;;49.13;27.58;;;;;;;;;;4972286;28;20460;-64
2024/02/15 01:13:35;;;;;;;46.08;30.27;;;;;;;;;;4972293;28;20114;-64
2024/02/15 01:16:04;;;;;;;54.10;30.30;;;;;;;;;;4972187;28;20027;-64
2024/02/15 01:18:31;;;;;;;55.85;34.83;;;;;;;;;;4972595;28;20394;-64
2024/02/15 01:20:58;;;;;;;55.20;33.58;;;;;;;;;;4972455;28;20039;-64
2024/02/15 01:23:24;;;;;;;57.13;33.08;;;;;;;;;;4954808;28;20054;-64
2024/02/15 01:25:50;;;;;;;54.03;34.60;;;;;;;;;;4972451;28;20031;-64
2024/02/15 01:28:16;;;;;;;50.53;33.90;;;;;;;;;;4972648;28;20024;-64
2024/02/15 01:30:46;;;;;;;56.33;34.13;;;;;;;;;;4972764;28;20046;-64
2024/02/15 01:33:13;;;;;;;45.10;30.63;;;;;;;;;;4955234;28;20035;-64
2024/02/15 01:35:39;;;;;;;53.33;33.30;;;;;;;;;;4972486;28;20500;-64
2024/02/15 01:38:06;;;;;;;54.42;33.28;;;;;;;;;;4972360;28;20353;-64
2024/02/15 01:40:32;;;;;;;52.28;32.97;;;;;;;;;;4975460;28;20038;-64
2024/02/15 01:43:00;;;;;;;62.35;32.70;;;;;;;;;;4974401;28;20169;-64
2024/02/15 01:45:27;;;;;;;57.60;35.17;;;;;;;;;;4974603;28;20027;-64
2024/02/15 01:47:54;;;;;;;48.30;32.53;;;;;;;;;;4976000;28;20023;-64
2024/02/15 01:50:21;;;;;;;53.83;32.20;;;;;;;;;;4975799;28;20035;-64
2024/02/15 01:52:47;;;;;;;;;;;;;;;;;;4974912;28;20031;-64
2024/02/15 01:55:14;;;;;;;45.10;30.10;;;;;;;;;;4975267;28;19917;-64
2024/02/15 01:57:44;;;;;;;48.95;28.80;;;;;;;;;;4974414;28;20509;-65
2024/02/15 02:00:12;;;;;;;48.53;32.10;;;;;;;;;;4974321;28;20058;-64
2024/02/15 02:02:41;;;;;;;47.30;30.60;;;;;;;;;;4974547;28;20027;-64
2024/02/15 02:05:08;;;;;;;49.05;30.75;;;;;;;;;;4975257;28;20055;-64
2024/02/15 02:07:35;;;;;;;47.58;31.88;;;;;;;;;;4974341;28;20031;-64
2024/02/15 02:10:02;;;;;;;48.72;30.08;;;;;;;;;;4974092;28;21233;-64
2024/02/15 02:12:28;;;;;;;47.25;29.35;;;;;;;;;;4975578;28;20543;-64
2024/02/15 02:14:54;;;;;;;49.20;30.90;;;;;;;;;;4975249;28;20038;-64
2024/02/15 02:17:21;;;;;;;47.38;32.85;;;;;;;;;;4974919;28;20029;-64
2024/02/15 02:19:49;;;;;;;46.83;32.17;;;;;;;;;;4975375;28;20049;-64
2024/02/15 02:22:17;;;;;;;53.58;31.75;;;;;;;;;;4975256;28;20030;-64
2024/02/15 02:24:58;;;;;;;47.47;32.25;;;;;;;;;;4975040;28;20034;-64
2024/02/15 02:27:27;;;;;;;56.40;32.17;;;;;;;;;;4965702;28;20093;-64
2024/02/15 02:29:54;;;;;;;52.10;32.92;;;;;;;;;;4975411;28;20023;-64
2024/02/15 02:32:21;;;;;;;57.58;34.90;;;;;;;;;;4975157;28;20038;-64
2024/02/15 02:34:47;;;;;;;47.88;31.77;;;;;;;;;;4973969;28;20045;-64
2024/02/15 02:37:13;;;;;;;44.53;29.52;;;;;;;;;;4973812;28;20081;-64
2024/02/15 02:39:40;;;;;;;50.90;33.80;;;;;;;;;;4973575;28;20486;-64
2024/02/15 02:42:08;;;;;;;;;;;;;;;;;;4975275;28;20491;-64
2024/02/15 02:44:34;;;;;;;40.40;26.95;;;;;;;;;;4974636;28;19910;-64
2024/02/15 02:47:01;;;;;;;41.92;28.05;;;;;;;;;;4973401;28;20038;-64
2024/02/15 02:49:27;;;;;;;43.92;29.65;;;;;;;;;;4974489;28;20023;-64
2024/02/15 02:51:53;;;;;;;42.38;28.52;;;;;;;;;;4973688;28;20112;-64
2024/02/15 02:54:19;;;;;;;46.87;30.67;;;;;;;;;;4974383;28;20078;-64
2024/02/15 02:56:45;;;;;;;47.92;31.50;;;;;;;;;;4974580;28;20039;-64
2024/02/15 02:59:12;;;;;;;49.25;31.10;;;;;;;;;;4973304;28;20035;-64
2024/02/15 03:01:39;;;;;;;45.03;30.88;;;;;;;;;;4974128;28;20075;-64
2024/02/15 03:04:06;;;;;;;49.22;32.40;;;;;;;;;;4973429;28;21399;-64
2024/02/15 03:06:32;;;;;;;56.67;32.30;;;;;;;;;;4974376;28;20105;-64
2024/02/15 03:08:58;;;;;;;50.80;32.50;;;;;;;;;;4974421;28;20777;-64
2024/02/15 03:11:24;;;;;;;51.20;33.25;;;;;;;;;;4973257;28;20031;-64
2024/02/15 03:13:51;;;;;;;41.90;28.33;;;;;;;;;;4974285;28;20130;-64
2024/02/15 03:16:17;;;;;;;44.05;28.85;;;;;;;;;;4972648;28;20058;-64
2024/02/15 03:18:43;;;;;;;49.30;30.23;;;;;;;;;;4974259;28;20391;-64
2024/02/15 03:21:12;;;;;;;50.15;31.17;;;;;;;;;;4973119;28;20110;-64
2024/02/15 03:23:38;;;;;;;46.50;30.65;;;;;;;;;;4974072;28;20048;-64
2024/02/15 03:26:05;;;;;;;44.47;29.23;;;;;;;;;;4972801;28;20023;-64
2024/02/15 03:28:32;;;;;;;44.05;28.33;;;;;;;;;;4973705;28;20117;-64
2024/02/15 03:31:00;;;;;;;50.70;29.52;;;;;;;;;;4973663;28;20030;-64
2024/02/15 03:33:32;;;;;;;39.63;26.23;;;;;;;;;;4972718;28;20033;-64
2024/02/15 03:36:00;;;;;;;47.80;27.40;;;;;;;;;;4973051;28;20076;-64
2024/02/15 03:38:29;;;;;;;45.30;28.42;;;;;;;;;;4972736;28;20034;-64
2024/02/15 03:40:58;;;;;;;45.10;28.52;;;;;;;;;;4954603;28;20046;-64
2024/02/15 03:43:24;;;;;;;56.95;30.55;;;;;;;;;;4972570;28;20058;-64
2024/02/15 03:45:51;;;;;;;40.92;28.35;;;;;;;;;;4973439;28;20369;-64
2024/02/15 03:48:18;;;;;;;46.70;29.63;;;;;;;;;;4973628;28;20031;-64
2024/02/15 03:50:45;;;;;;;;;;;;;;;;;;4973845;28;20270;-64
2024/02/15 03:53:11;;;;;;;45.80;28.70;;;;;;;;;;4973258;28;19948;-64
2024/02/15 03:55:37;;;;;;;39.80;26.65;;;;;;;;;;4973414;28;20031;-64
2024/02/15 03:58:03;;;;;;;44.53;26.48;;;;;;;;;;4973786;28;20399;-65
2024/02/15 04:00:29;;;;;;;43.50;29.90;;;;;;;;;;4972325;28;20119;-64
2024/02/15 04:02:56;;;;;;;38.95;23.60;;;;;;;;;;4971710;28;20031;-64
2024/02/15 04:05:23;;;;;;;38.78;26.15;;;;;;;;;;4972013;28;20285;-64
2024/02/15 04:07:49;;;;;;;48.85;28.70;;;;;;;;;;4972609;28;20471;-64
2024/02/15 04:10:18;;;;;;;43.22;28.35;;;;;;;;;;4973360;28;20534;-64
2024/02/15 04:12:44;;;;;;;49.88;29.73;;;;;;;;;;4973152;28;20038;-64
2024/02/15 04:15:16;;;;;;;45.80;26.57;;;;;;;;;;4972794;28;20038;-64
2024/02/15 04:17:45;;;;;;;42.58;27.02;;;;;;;;;;4954056;28;20056;-65
2024/02/15 04:20:11;;;;;;;50.28;30.30;;;;;;;;;;4958239;28;20030;-64
2024/02/15 04:22:38;;;;;;;51.65;31.98;;;;;;;;;;4971204;28;20027;-64
2024/02/15 04:25:15;;;;;;;46.58;30.50;;;;;;;;;;4953712;28;20028;-64
2024/02/15 04:27:42;;;;;;;52.97;29.77;;;;;;;;;;4954081;28;20405;-65
2024/02/15 04:30:09;;;;;;;51.28;29.02;;;;;;;;;;4954309;28;20058;-64
2024/02/15 04:32:36;;;;;;;48.60;28.98;;;;;;;;;;4973041;28;20102;-64
2024/02/15 04:35:03;;;;;;;44.00;27.88;;;;;;;;;;4971751;28;20081;-64
2024/02/15 04:37:31;;;;;;;49.58;30.05;;;;;;;;;;4971941;28;20106;-64
2024/02/15 04:39:58;;;;;;;51.95;31.02;;;;;;;;;;4953772;28;20451;-64
2024/02/15 04:42:26;;;;;;;38.10;24.35;;;;;;;;;;4953875;28;20042;-64
2024/02/15 04:44:53;;;;;;;43.13;24.88;;;;;;;;;;4956027;28;20547;-64
2024/02/15 04:47:20;;;;;;;41.90;26.38;;;;;;;;;;4961406;28;20027;-64
2024/02/15 04:49:46;;;;;;;37.97;25.33;;;;;;;;;;4963820;28;20030;-58
2024/02/15 04:52:14;;;;;;;38.73;24.27;;;;;;;;;;4972570;28;20058;-54
2024/02/15 04:54:40;;;;;;;33.25;21.38;;;;;;;;;;4971048;28;20062;-59
2024/02/15 04:57:08;;;;;;;43.92;25.70;;;;;;;;;;4972716;28;20404;-55
2024/02/15 04:59:35;;;;;;;36.05;24.73;;;;;;;;;;4969633;28;20019;-64
2024/02/15 05:02:01;;;;;;;32.20;22.17;;;;;;;;;;4972937;28;20372;-64
2024/02/15 05:04:27;;;;;;;38.08;23.88;;;;;;;;;;4972454;28;20033;-64
2024/02/15 05:06:55;;;;;;;39.95;24.08;;;;;;;;;;4953954;28;20089;-64
2024/02/15 05:09:22;;;;;;;44.28;24.65;;;;;;;;;;4971127;28;20114;-64
2024/02/15 05:11:49;;;;;;;37.67;24.60;;;;;;;;;;4971006;28;20082;-64
2024/02/15 05:14:23;;;;;;;39.03;24.97;;;;;;;;;;4973922;28;20101;-64
2024/02/15 05:16:49;;;;;;;42.38;24.80;;;;;;;;;;4974550;28;20266;-64
2024/02/15 05:19:18;;;;;;;45.17;25.33;;;;;;;;;;4974736;28;20046;-64
2024/02/15 05:21:45;;;;;;;41.90;27.02;;;;;;;;;;4975603;28;20074;-64
2024/02/15 05:24:15;;;;;;;52.13;29.42;;;;;;;;;;4976592;28;20030;-64
2024/02/15 05:26:42;;;;;;;51.03;31.02;;;;;;;;;;4975227;28;20026;-63
2024/02/15 05:29:10;;;;;;;42.28;25.65;;;;;;;;;;4976434;28;20027;-64
2024/02/15 05:31:37;;;;;;;35.08;24.00;;;;;;;;;;4975156;28;20069;-64
2024/02/15 05:34:05;;;;;;;33.10;23.42;;;;;;;;;;4975059;28;20066;-64
2024/02/15 05:36:31;;;;;;;36.67;24.08;;;;;;;;;;4975054;28;20042;-64
2024/02/15 05:38:58;;;;;;;35.05;24.27;;;;;;;;;;4975239;28;20031;-64
2024/02/15 05:41:24;;;;;;;38.92;25.50;;;;;;;;;;4976187;28;20392;-64
2024/02/15 05:43:53;;;;;;;40.83;26.98;;;;;;;;;;4974855;28;20282;-64
2024/02/15 05:46:23;;;;;;;41.80;27.02;;;;;;;;;;4974901;28;20034;-64
2024/02/15 05:48:51;;;;;;;41.35;24.23;;;;;;;;;;4974940;28;20392;-64
2024/02/15 05:51:17;;;;;;;42.08;24.65;;;;;;;;;;4976084;28;20034;-64
2024/02/15 05:53:44;;;;;;;43.17;26.03;;;;;;;;;;4975963;28;20361;-64
2024/02/15 05:56:12;;;;;;;42.95;27.25;;;;;;;;;;4974830;28;20308;-64
2024/02/15 05:58:39;;;;;;;44.55;25.65;;;;;;;;;;4975935;28;20530;-64
2024/02/15 06:01:12;;;;;;;41.95;28.40;;;;;;;;;;4974668;28;20042;-64
2024/02/15 06:03:40;;;;;;;46.30;27.55;;;;;;;;;;4975756;28;20492;-64
2024/02/15 06:06:06;;;;;;;47.10;27.85;;;;;;;;;;4975424;28;20026;-64
2024/02/15 06:08:33;;;;;;;38.83;25.65;;;;;;;;;;4974617;28;20081;-64
2024/02/15 06:10:59;;;;;;;38.83;24.90;;;;;;;;;;4975748;28;20035;-64
2024/02/15 06:13:26;;;;;;;42.88;27.27;;;;;;;;;;4975520;28;20027;-64
2024/02/15 06:15:53;;;;;;;42.60;27.20;;;;;;;;;;4975502;28;20031;-64
2024/02/15 06:18:25;;;;;;;38.20;25.63;;;;;;;;;;4975601;28;20416;-64
2024/02/15 06:20:51;;;;;;;48.17;27.67;;;;;;;;;;4958232;28;20046;-64
2024/02/15 06:23:18;;;;;;;44.10;25.33;;;;;;;;;;4974203;28;20022;-64
2024/02/15 06:25:45;;;;;;;42.67;26.00;;;;;;;;;;4974477;28;20499;-64
2024/02/15 06:39:37;;;;;;;46.13;28.50;;;;;;;;;;4975315;28;20037;-64
2024/02/15 06:42:01;;;;;;;60.42;28.92;;;;;;;;;;4975137;28;20380;-64
2024/02/15 06:44:27;;;;;;;;;;;;;;;;;;4975530;28;20451;-64
2024/02/15 06:46:53;;;;;;;43.67;26.33;;;;;;;;;;4974923;28;19953;-64
2024/02/15 06:49:19;;;;;;;33.05;23.83;;;;;;;;;;4975194;28;20262;-64
2024/02/15 06:51:49;;;;;;;34.53;23.23;;;;;;;;;;4975052;28;20495;-64
2024/02/15 06:54:17;;;;;;;36.17;24.80;;;;;;;;;;4988278;22;20105;-58
2024/02/15 06:56:45;;;;;;;32.88;23.83;;;;;;;;;;4974211;28;20042;-58
2024/02/15 06:59:14;;;;;;;35.30;25.20;;;;;;;;;;4974815;28;20212;-59
2024/02/15 07:01:43;;;;;;;36.58;24.83;;;;;;;;;;4974885;28;20444;-57
2024/02/15 07:04:13;;;;;;;32.65;23.50;;;;;;;;;;4957318;28;20027;-58
2024/02/15 07:06:40;;;;;;;30.60;22.92;;;;;;;;;;4974673;28;20508;-58
2024/02/15 07:09:06;;;;;;;33.17;24.02;;;;;;;;;;4974743;28;20026;-58
2024/02/15 07:11:36;;;;;;;33.45;24.92;;;;;;;;;;4973581;28;20455;-59
2024/02/15 07:14:04;;;;;;;38.58;26.55;;;;;;;;;;4974500;28;20045;-58
2024/02/15 07:16:31;;;;;;;79.63;28.83;;;;;;;;;;4974415;28;20483;-59
2024/02/15 07:18:58;;;;;;;71.65;29.27;;;;;;;;;;4974619;28;20058;-58
2024/02/15 07:21:26;;;;;;;61.97;28.05;;;;;;;;;;4974511;28;20062;-57
2024/02/15 07:23:54;;;;;;;70.07;25.88;;;;;;;;;;4974322;28;20043;-58
2024/02/15 07:26:24;;;;;;;80.50;25.23;;;;;;;;;;4974168;28;20491;-58
2024/02/15 07:28:52;;;;;;;41.88;23.30;;;;;;;;;;4974595;28;20105;-58
2024/02/15 07:31:19;;;;;;;27.90;21.77;;;;;;;;;;4974320;28;20034;-58
2024/02/15 07:33:45;;;;;;;32.00;23.95;;;;;;;;;;4974149;28;20077;-59
2024/02/15 07:36:13;;;;;;;39.35;25.38;;;;;;;;;;4974100;28;20023;-58
2024/02/15 07:38:39;;;;;;;33.55;26.23;;;;;;;;;;4974494;28;20026;-56
2024/02/15 07:41:06;;;;;;;37.42;27.90;;;;;;;;;;4974040;28;20038;-58
2024/02/15 07:43:33;;;;;;;34.15;26.05;;;;;;;;;;4974002;28;20033;-56
2024/02/15 07:45:59;;;;;;;36.38;22.20;;;;;;;;;;4972648;28;20460;-55
2024/02/15 07:48:26;;;;;;;39.80;24.58;;;;;;;;;;4974190;28;20109;-56
2024/02/15 07:50:53;;;;;;;;;;;;;;;;;;4974305;28;20027;-57
2024/02/15 07:53:19;;;;;;;48.60;27.42;;;;;;;;;;4973662;28;19910;-57
2024/02/15 07:55:45;;;;;;;45.40;30.30;;;;;;;;;;4974073;28;20113;-55
2024/02/15 07:58:13;;;;;;;44.50;33.53;;;;;;;;;;4973807;28;20046;-52
2024/02/15 08:00:39;;;;;;;52.33;34.90;;;;;;;;;;4973670;28;20035;-57
2024/02/15 08:03:05;;;;;;;52.30;35.72;;;;;;;;;;4972563;28;20031;-56
2024/02/15 08:05:31;;;;;;;65.88;35.67;;;;;;;;;;4973381;28;20035;-57
2024/02/15 08:07:58;;;;;;;56.57;36.63;;;;;;;;;;4972306;28;20035;-57
2024/02/15 08:10:24;;;;;;;55.13;38.17;;;;;;;;;;4973853;28;20074;-56
2024/02/15 08:12:52;;;;;;;62.93;39.70;;;;;;;;;;4973604;28;20437;-58
2024/02/15 08:15:19;;;;;;;58.85;38.63;;;;;;;;;;4973223;28;20035;-56
2024/02/15 08:17:48;;;;;;;54.80;37.17;;;;;;;;;;4973523;28;20037;-57
2024/02/15 08:20:21;;;;;;;59.70;37.35;;;;;;;;;;4972114;28;20041;-58
2024/02/15 08:22:47;;;;;;;59.55;38.80;;;;;;;;;;4972138;28;20066;-55
2024/02/15 08:25:18;;;;;;;56.08;36.88;;;;;;;;;;4973087;28;20106;-58
2024/02/15 08:27:44;;;;;;;70.47;42.65;;;;;;;;;;4972193;28;20494;-55
2024/02/15 08:30:11;;;;;;;59.22;38.92;;;;;;;;;;4973346;28;20031;-57
2024/02/15 08:32:39;;;;;;;54.13;37.95;;;;;;;;;;4973207;28;20030;-57
2024/02/15 08:35:06;;;;;;;53.42;39.25;;;;;;;;;;4972941;28;20383;-57
2024/02/15 08:37:34;;;;;;;55.13;36.78;;;;;;;;;;4973187;28;20026;-57
2024/02/15 08:40:01;;;;;;;53.60;37.85;;;;;;;;;;4973095;28;20030;-57
2024/02/15 08:42:27;;;;;;;63.45;39.75;;;;;;;;;;4973196;28;20507;-58
2024/02/15 08:44:54;;;;;;;58.13;39.20;;;;;;;;;;4973144;28;20400;-57
2024/02/15 08:47:20;;;;;;;60.03;37.00;;;;;;;;;;4972511;28;20031;-58
2024/02/15 08:49:47;;;;;;;54.30;37.53;;;;;;;;;;4973017;28;20023;-58
2024/02/15 08:52:13;;;;;;;57.37;39.53;;;;;;;;;;4973100;28;20122;-57
2024/02/15 08:54:39;;;;;;;58.28;40.72;;;;;;;;;;4971526;28;20114;-58
2024/02/15 08:57:07;;;;;;;54.75;38.97;;;;;;;;;;4972917;28;20031;-56
2024/02/15 08:59:33;;;;;;;57.03;40.67;;;;;;;;;;4972955;28;20077;-58
2024/02/15 09:02:00;;;;;;;63.63;40.30;;;;;;;;;;4972873;28;20059;-57
2024/02/15 09:04:27;;;;;;;57.72;38.70;;;;;;;;;;4972731;28;20385;-58
2024/02/15 09:06:53;;;;;;;53.20;40.08;;;;;;;;;;4972778;28;20027;-57
2024/02/15 09:09:19;;;;;;;56.33;40.72;;;;;;;;;;4972819;28;20027;-57
2024/02/15 09:11:46;;;;;;;62.07;42.90;;;;;;;;;;4971670;28;20041;-57
2024/02/15 09:14:12;;;;;;;62.08;39.55;;;;;;;;;;4955323;28;20651;-56
2024/02/15 09:16:39;;;;;;;59.00;40.42;;;;;;;;;;4972613;28;20462;-57
2024/02/15 09:19:06;;;;;;;55.83;39.92;;;;;;;;;;4972840;28;20027;-59
2024/02/15 09:21:33;;;;;;;70.13;41.65;;;;;;;;;;4972693;28;20031;-58
2024/02/15 09:24:00;;;;;;;57.45;41.20;;;;;;;;;;4972603;28;20027;-59
2024/02/15 09:26:27;;;;;;;60.60;40.35;;;;;;;;;;4972595;28;20041;-57
2024/02/15 09:28:53;;;;;;;55.80;40.28;;;;;;;;;;4972653;28;20102;-59
2024/02/15 09:31:20;;;;;;;59.35;40.83;;;;;;;;;;4971331;28;20027;-57
2024/02/15 09:33:46;;;;;;;58.15;38.53;;;;;;;;;;4972620;28;20479;-55
2024/02/15 09:36:13;;;;;;;59.97;40.33;;;;;;;;;;4972477;28;20054;-59
2024/02/15 09:38:39;;;;;;;58.15;38.60;;;;;;;;;;4971528;28;20031;-56
2024/02/15 09:41:08;;;;;;;62.15;37.72;;;;;;;;;;4971390;28;20077;-58
2024/02/15 09:43:35;;;;;;;49.17;37.13;;;;;;;;;;4971545;28;20089;-59
2024/02/15 09:46:04;;;;;;;56.85;39.58;;;;;;;;;;4955046;28;20487;-59
2024/02/15 09:48:32;;;;;;;54.33;38.95;;;;;;;;;;4972539;28;20054;-59
2024/02/15 09:51:01;;;;;;;53.83;39.40;;;;;;;;;;4971209;28;20038;-59
2024/02/15 09:53:28;;;;;;;54.38;37.92;;;;;;;;;;4972194;28;20080;-58
2024/02/15 09:55:55;;;;;;;51.13;36.15;;;;;;;;;;4972356;28;20030;-59
2024/02/15 09:58:25;;;;;;;67.57;39.28;;;;;;;;;;4972386;28;20388;-59
2024/02/15 10:00:51;;;;;;;56.17;35.22;;;;;;;;;;4974621;28;20093;-59
2024/02/15 10:03:23;;;;;;;48.08;33.28;;;;;;;;;;4976006;28;20027;-59
2024/02/15 10:05:49;;;;;;;50.72;33.42;;;;;;;;;;4975751;28;20070;-59
2024/02/15 10:08:17;;;;;;;46.97;32.35;;;;;;;;;;4975793;28;20027;-58
2024/02/15 10:10:43;;;;;;;50.10;34.92;;;;;;;;;;4975692;28;20047;-58
2024/02/15 10:13:13;;;;;;;44.70;32.63;;;;;;;;;;4975727;28;20027;-56
2024/02/15 10:15:40;;;;;;;44.95;31.95;;;;;;;;;;4975476;28;20082;-59
2024/02/15 10:18:11;;;;;;;42.63;30.65;;;;;;;;;;4975659;28;20141;-59
2024/02/15 10:20:44;;;;;;;42.28;30.50;;;;;;;;;;4975558;28;20118;-58
2024/02/15 10:23:17;;;;;;;44.85;30.73;;;;;;;;;;4975305;28;20069;-59
2024/02/15 10:25:44;;;;;;;38.88;28.77;;;;;;;;;;4974036;28;20488;-59
2024/02/15 10:28:15;;;;;;;57.80;29.25;;;;;;;;;;4975438;28;20383;-56
2024/02/15 10:30:49;;;;;;;48.85;30.75;;;;;;;;;;4975424;28;20443;-59
2024/02/15 10:33:22;;;;;;;45.58;31.05;;;;;;;;;;4975426;28;20027;-59
2024/02/15 10:35:48;;;;;;;50.50;32.35;;;;;;;;;;4975056;28;20031;-58
2024/02/15 10:38:15;;;;;;;41.37;28.87;;;;;;;;;;4975290;28;20498;-59
2024/02/15 10:40:42;;;;;;;42.10;29.23;;;;;;;;;;4975188;28;20513;-57
2024/02/15 10:43:12;;;;;;;49.10;30.05;;;;;;;;;;4974026;28;20066;-59
2024/02/15 10:45:39;;;;;;;45.28;31.08;;;;;;;;;;4975000;28;20093;-58
2024/02/15 10:48:08;;;;;;;47.72;30.30;;;;;;;;;;4975135;28;20023;-58
2024/02/15 10:50:35;;;;;;;36.70;29.25;;;;;;;;;;4974979;28;20034;-57
2024/02/15 10:53:04;;;;;;;45.35;31.98;;;;;;;;;;4973790;28;20042;-58
2024/02/15 10:55:54;;;;;;;39.50;29.17;;;;;;;;;;4973412;28;20558;-56
2024/02/15 10:58:21;;;;;;;39.13;28.05;;;;;;;;;;4974929;28;20031;-56
2024/02/15 11:00:48;;;;;;;41.80;28.13;;;;;;;;;;4974744;28;20431;-56
2024/02/15 11:03:14;;;;;;;;;;;;;;;;;;4975215;28;20031;-58
2024/02/15 11:05:41;;;;;;;41.15;28.45;;;;;;;;;;4974610;28;19952;-59
2024/02/15 11:08:08;;;;;;;;;;;;;;;;;;4975228;28;20035;-59
2024/02/15 11:10:43;;;;;;;42.47;28.75;;;;;;;;;;4974427;28;20393;-59
2024/02/15 11:13:10;;;;;;;73.68;32.33;;;;;;;;;;4973360;28;20058;-59
2024/02/15 11:15:39;;;;;;;39.35;29.02;;;;;;;;;;4966952;28;20122;-58
2024/02/15 11:18:06;;;;;;;38.50;28.17;;;;;;;;;;4964518;28;20027;-60
2024/02/15 11:20:33;;;;;;;43.65;29.33;;;;;;;;;;4967293;28;20042;-59
2024/02/15 11:23:01;;;;;;;46.00;29.48;;;;;;;;;;4969691;28;20522;-59
2024/02/15 11:25:39;;;;;;;45.40;30.75;;;;;;;;;;4963499;28;20039;-59
2024/02/15 11:28:27;;;;;;;41.95;29.23;;;;;;;;;;4963860;28;20026;-60
2024/02/15 11:30:56;;;;;;;44.55;31.65;;;;;;;;;;4960188;28;20082;-59
2024/02/15 11:33:29;;;;;;;43.15;31.50;;;;;;;;;;4958336;28;20511;-59
2024/02/15 11:36:24;;;;;;;42.95;29.58;;;;;;;;;;4958775;28;20035;-60
2024/02/15 11:38:51;;;;;;;40.35;28.80;;;;;;;;;;4961693;28;20070;-60
2024/02/15 11:41:22;;;;;;;40.05;27.90;;;;;;;;;;4971974;28;20027;-59
2024/02/15 11:43:50;;;;;;;39.78;27.83;;;;;;;;;;4971281;28;20031;-59
2024/02/15 11:46:19;;;;;;;40.55;30.73;;;;;;;;;;4974054;28;20035;-59
2024/02/15 11:48:46;;;;;;;39.65;29.70;;;;;;;;;;4955128;28;20484;-59
2024/02/15 11:51:36;;;;;;;46.38;31.15;;;;;;;;;;4971287;28;20062;-60
2024/02/15 11:54:05;;;;;;;42.78;30.13;;;;;;;;;;4973216;28;20026;-60
2024/02/15 11:56:54;;;;;;;43.95;30.15;;;;;;;;;;4971742;28;20038;-59
2024/02/15 11:59:31;;;;;;;44.20;30.08;;;;;;;;;;4969206;28;20424;-60
2024/02/15 12:19:00;;;;;;;40.38;30.15;;;;;;;;;;4955434;28;20035;-58
2024/02/15 12:21:27;;;;;;;40.63;30.40;;;;;;;;;;4953851;28;20042;-60
2024/02/15 12:23:54;;;;;;;39.85;30.40;;;;;;;;;;4957999;28;20031;-60
2024/02/15 12:26:20;;;;;;;35.57;28.03;;;;;;;;;;4952102;28;20030;-59
2024/02/15 12:28:57;;;;;;;40.50;29.40;;;;;;;;;;4969150;28;20031;-60
2024/02/15 12:31:28;;;;;;;37.63;29.63;;;;;;;;;;4969230;28;20454;-59
2024/02/15 12:34:01;;;;;;;45.30;28.88;;;;;;;;;;4952237;28;20028;-60
2024/02/15 12:36:27;;;;;;;40.60;30.17;;;;;;;;;;4950852;28;20039;-60
2024/02/15 12:39:01;;;;;;;40.40;29.83;;;;;;;;;;4935006;28;20042;-60
2024/02/15 12:41:27;;;;;;;38.20;28.75;;;;;;;;;;4952159;28;20039;-60
2024/02/15 12:43:57;;;;;;;40.97;28.00;;;;;;;;;;4954650;28;20050;-60
2024/02/15 12:46:23;;;;;;;40.38;29.33;;;;;;;;;;4959773;28;20043;-60
2024/02/15 12:48:49;;;;;;;40.78;28.33;;;;;;;;;;4952158;28;20062;-61
2024/02/15 12:51:16;;;;;;;40.03;27.60;;;;;;;;;;4968494;28;20069;-60
2024/02/15 12:53:42;;;;;;;38.75;29.63;;;;;;;;;;4970500;28;20579;-60
2024/02/15 12:56:09;;;;;;;38.33;29.55;;;;;;;;;;4971235;28;20066;-60
2024/02/15 12:58:35;;;;;;;37.50;28.38;;;;;;;;;;4952378;28;20036;-61
2024/02/15 13:01:04;;;;;;;36.33;28.13;;;;;;;;;;4961642;28;20047;-61
2024/02/15 13:03:30;;;;;;;36.55;29.35;;;;;;;;;;4956251;28;20545;-60
2024/02/15 13:05:57;;;;;;;37.80;27.40;;;;;;;;;;4970912;28;20039;-60
2024/02/15 13:08:23;;;;;;;38.10;28.73;;;;;;;;;;4969875;28;20372;-61
2024/02/15 13:10:51;;;;;;;37.15;25.75;;;;;;;;;;4968437;28;20038;-61
2024/02/15 13:13:17;;;;;;;36.50;25.23;;;;;;;;;;4971247;28;20224;-61
2024/02/15 13:15:43;;;;;;;35.30;25.70;;;;;;;;;;4964376;28;20070;-61
2024/02/15 13:18:11;;;;;;;35.78;27.80;;;;;;;;;;4952038;28;20337;-61
2024/02/15 13:20:37;;;;;;;34.78;27.38;;;;;;;;;;4962596;28;20460;-61
2024/02/15 13:23:25;;;;;;;33.10;26.27;;;;;;;;;;4968851;28;20556;-62
2024/02/15 13:25:52;;;;;;;31.77;24.60;;;;;;;;;;4968189;28;20031;-61
2024/02/15 13:28:18;;;;;;;32.63;25.80;;;;;;;;;;4968198;28;20038;-61
2024/02/15 13:30:45;;;;;;;40.40;26.60;;;;;;;;;;4963824;28;20505;-61
2024/02/15 13:33:12;;;;;;;34.55;25.65;;;;;;;;;;4966046;28;20098;-62
2024/02/15 13:35:38;;;;;;;33.50;24.67;;;;;;;;;;4965319;28;20077;-61
2024/02/15 13:38:04;;;;;;;34.78;25.83;;;;;;;;;;4967582;28;20081;-61
2024/02/15 13:40:31;;;;;;;34.55;25.92;;;;;;;;;;4963891;28;20046;-59
2024/02/15 13:42:59;;;;;;;35.25;26.30;;;;;;;;;;4973614;28;20100;-60
2024/02/15 13:45:32;;;;;;;28.77;24.45;;;;;;;;;;4959295;28;20371;-59
2024/02/15 13:48:00;;;;;;;32.42;24.95;;;;;;;;;;4962647;28;20423;-59
2024/02/15 13:50:29;;;;;;;32.50;24.33;;;;;;;;;;4965994;28;20045;-59
2024/02/15 13:52:55;;;;;;;32.33;23.80;;;;;;;;;;4965677;28;20096;-60
2024/02/15 13:55:21;;;;;;;36.67;26.13;;;;;;;;;;4946589;28;20054;-62
2024/02/15 13:57:49;;;;;;;34.33;25.02;;;;;;;;;;4970631;28;20042;-62
2024/02/15 14:00:22;;;;;;;35.10;24.23;;;;;;;;;;4955226;28;20039;-61
2024/02/15 14:02:49;;;;;;;37.92;25.45;;;;;;;;;;4956595;28;20036;-61
2024/02/15 14:05:19;;;;;;;33.65;24.35;;;;;;;;;;4956399;28;20477;-62
2024/02/15 14:07:53;;;;;;;36.50;26.05;;;;;;;;;;4955637;29;20174;-60
2024/02/15 14:10:21;;;;;;;33.90;25.92;;;;;;;;;;4956558;28;20066;-60
2024/02/15 14:13:01;;;;;;;34.40;24.42;;;;;;;;;;4955251;28;20032;-61
2024/02/15 14:15:27;;;;;;;35.03;27.75;;;;;;;;;;4956260;28;20511;-60
2024/02/15 14:17:55;;;;;;;37.63;26.60;;;;;;;;;;4956375;28;20035;-61
2024/02/15 14:20:22;;;;;;;35.15;27.38;;;;;;;;;;4956275;28;20506;-60
2024/02/15 14:22:55;;;;;;;36.33;24.47;;;;;;;;;;4956282;28;20035;-64
2024/02/15 14:25:31;;;;;;;32.90;24.23;;;;;;;;;;4955946;28;20262;-64
2024/02/15 14:27:58;;;;;;;36.00;25.90;;;;;;;;;;4956263;28;20054;-63
2024/02/15 14:33:11;;;;;;;36.38;24.70;;;;;;;;;;4954827;28;20408;-64
2024/02/15 14:35:41;;;;;;;37.60;26.48;;;;;;;;;;4938493;29;20031;-65
2024/02/15 14:38:10;;;;;;;38.70;25.95;;;;;;;;;;4961157;28;20030;-60
2024/02/15 14:40:36;;;;;;;34.65;26.67;;;;;;;;;;4956916;28;20401;-61
2024/02/15 14:43:07;;;;;;;50.13;26.55;;;;;;;;;;4956954;28;20038;-60
2024/02/15 14:45:34;;;;;;;40.58;24.83;;;;;;;;;;4971008;28;20031;-60
2024/02/15 14:48:01;;;;;;;43.65;27.15;;;;;;;;;;4974762;28;20034;-61
2024/02/15 14:50:28;;;;;;;36.30;22.65;;;;;;;;;;4964768;28;20063;-60
2024/02/15 14:52:54;;;;;;;;;;;;;;;;;;4972272;28;20034;-64
2024/02/15 14:55:20;;;;;;;35.63;26.60;;;;;;;;;;4973917;28;19914;-64